Terminal Aerodrome Forecast
Issued by NWS Columbia, SC

Home | Current Version | Previous Version | Text Only | Print | Product List | Glossary On
Versions: 1 2 3 4 5 6 7 8 9 10 11 12 13 14 15 16 17 18 19 20 21 22 23 24 25 26 27 28
000
FTUS42 KCAE 212300
TAFCAE
TAF
KCAE 212339Z 2200/2224 07008KT P6SM VCSH SCT030 OVC050
      TEMPO 2201/2203 5SM -RA BR BKN015 OVC030
     FM220300 05006KT P6SM VCSH OVC015
     FM220600 04008KT 5SM -RA BR OVC006
     FM221300 04006KT 4SM -DZ BR BKN005 OVC010=

USA.gov is the U.S. government's official web portal to all federal, state and local government web resources and services.